Time;durP1;ratioP1;P1;durP2;ratioP2;P2;SDS_P1;SDS_P2;PMS_P1;PMS_P2;Temp;Humidity;BMP_temperature;BMP_pressure;BME280_temperature;BME280_humidity;BME280_pressure;Samples;Min_cycle;Max_cycle;Signal;HPM_P1;HPM_P2
2023/05/03 00:01:08;;;;;;;0.90;0.10;;;19.50;60.60;;;;;;5010728;28;20053;-70
2023/05/03 00:03:38;;;;;;;0.80;0.10;;;19.50;60.60;;;;;;5007667;28;20057;-70
2023/05/03 00:06:12;;;;;;;1.00;0.10;;;19.50;60.60;;;;;;5010608;28;20049;-71
2023/05/03 00:08:39;;;;;;;1.40;0.20;;;19.50;60.60;;;;;;5010157;28;20460;-70
2023/05/03 00:11:06;;;;;;;0.65;0.10;;;19.50;60.60;;;;;;5009075;28;20105;-70
2023/05/03 00:13:33;;;;;;;0.80;0.25;;;19.50;60.60;;;;;;5003337;28;20133;-70
2023/05/03 00:16:00;;;;;;;0.60;0.13;;;19.50;60.60;;;;;;5010607;28;20042;-70
2023/05/03 00:18:27;;;;;;;0.73;0.30;;;19.50;60.60;;;;;;5010493;28;20060;-70
2023/05/03 00:20:55;;;;;;;0.63;0.10;;;19.50;60.60;;;;;;5006582;28;20057;-70
2023/05/03 00:23:22;;;;;;;0.60;0.10;;;19.50;60.50;;;;;;5006116;28;20129;-70
2023/05/03 00:25:53;;;;;;;0.63;0.20;;;19.50;60.50;;;;;;5002746;28;20046;-70
2023/05/03 00:28:20;;;;;;;0.70;0.10;;;19.50;60.50;;;;;;4999102;28;20549;-70
2023/05/03 00:30:47;;;;;;;0.55;0.20;;;19.50;60.60;;;;;;5006411;28;20108;-71
2023/05/03 00:33:15;;;;;;;0.98;0.20;;;19.50;60.50;;;;;;5005859;28;20053;-70
2023/05/03 00:35:42;;;;;;;0.98;0.13;;;19.40;60.50;;;;;;5000979;28;20097;-70
2023/05/03 00:38:10;;;;;;;0.88;0.10;;;19.50;60.50;;;;;;5010930;28;20041;-70
2023/05/03 00:47:22;;;;;;;0.60;0.20;;;19.40;60.40;;;;;;4982706;28;20076;-71
2023/05/03 00:49:49;;;;;;;0.98;0.10;;;19.50;60.50;;;;;;5000188;28;20054;-70
2023/05/03 00:52:16;;;;;;;1.17;0.20;;;19.40;60.40;;;;;;5005668;28;20069;-70
2023/05/03 00:54:44;;;;;;;1.02;0.50;;;19.40;61.00;;;;;;5010732;28;20466;-70
2023/05/03 00:57:11;;;;;;;1.17;0.10;;;19.40;60.40;;;;;;5006350;28;20050;-70
2023/05/03 00:59:39;;;;;;;0.85;0.17;;;19.40;60.90;;;;;;5010476;28;20065;-70
2023/05/03 01:02:06;;;;;;;0.65;0.10;;;19.40;60.40;;;;;;5007900;28;20054;-70
2023/05/03 01:04:33;;;;;;;0.88;0.10;;;19.40;60.30;;;;;;5009509;28;20049;-70
2023/05/03 01:07:10;;;;;;;1.42;0.30;;;19.40;60.40;;;;;;5019762;28;20503;-70
2023/05/03 01:09:43;;;;;;;1.00;0.10;;;19.40;60.40;;;;;;5008013;28;20073;-70
2023/05/03 01:12:23;;;;;;;1.02;0.10;;;19.40;60.30;;;;;;5008454;28;20046;-70
2023/05/03 01:15:02;;;;;;;0.77;0.20;;;19.40;60.40;;;;;;5002324;28;20046;-70
2023/05/03 01:17:38;;;;;;;1.40;0.20;;;19.40;60.30;;;;;;5006218;28;20050;-70
2023/05/03 01:20:10;;;;;;;0.60;0.10;;;19.40;60.30;;;;;;5007548;28;20073;-70
2023/05/03 01:22:47;;;;;;;0.85;0.20;;;19.40;60.30;;;;;;5008902;28;20049;-70
2023/05/03 01:25:15;;;;;;;0.93;0.10;;;19.30;60.30;;;;;;5001869;28;20053;-70
2023/05/03 01:27:43;;;;;;;1.17;0.30;;;19.30;60.30;;;;;;5002253;28;20049;-70
2023/05/03 01:30:11;;;;;;;0.68;0.10;;;19.40;60.30;;;;;;5001709;28;20052;-70
2023/05/03 01:32:52;;;;;;;0.60;0.10;;;19.30;60.30;;;;;;5006574;28;20491;-70
2023/05/03 01:35:28;;;;;;;0.70;0.10;;;19.40;60.30;;;;;;4996472;28;20049;-70
2023/05/03 01:37:57;;;;;;;0.77;0.10;;;19.40;60.30;;;;;;5001809;28;20085;-70
2023/05/03 01:40:27;;;;;;;0.63;0.35;;;19.30;60.20;;;;;;5007839;28;20057;-69
2023/05/03 01:42:56;;;;;;;1.48;0.10;;;19.30;60.90;;;;;;5004821;28;20518;-71
2023/05/03 01:45:23;;;;;;;0.63;0.20;;;19.30;60.20;;;;;;5001638;28;20509;-70
2023/05/03 01:47:50;;;;;;;0.63;0.15;;;19.30;60.20;;;;;;5007725;28;20046;-70
2023/05/03 01:50:17;;;;;;;0.55;0.20;;;19.30;60.90;;;;;;4998506;28;20046;-70
2023/05/03 01:52:44;;;;;;;0.60;0.10;;;19.30;60.20;;;;;;5007604;28;20400;-70
2023/05/03 01:55:11;;;;;;;0.43;0.10;;;19.30;60.20;;;;;;5008968;28;20050;-70
2023/05/03 01:57:40;;;;;;;0.57;0.10;;;19.30;60.30;;;;;;5008918;28;20419;-70
2023/05/03 02:00:08;;;;;;;0.60;0.15;;;19.30;60.80;;;;;;5008382;28;20501;-71
2023/05/03 02:02:35;;;;;;;0.73;0.10;;;19.30;60.20;;;;;;5002103;28;20153;-70
2023/05/03 02:05:03;;;;;;;0.65;0.10;;;19.30;60.20;;;;;;5009360;28;20558;-70
2023/05/03 02:07:29;;;;;;;0.80;0.10;;;19.30;60.20;;;;;;5008463;28;20415;-69
2023/05/03 02:09:59;;;;;;;0.52;0.22;;;19.30;60.20;;;;;;5008564;28;20088;-71
2023/05/03 02:12:26;;;;;;;0.80;0.10;;;19.30;60.20;;;;;;5008409;28;20494;-70
2023/05/03 02:14:55;;;;;;;0.68;0.20;;;19.30;60.20;;;;;;5009368;28;20053;-70
2023/05/03 02:17:25;;;;;;;0.60;0.10;;;19.30;60.20;;;;;;5005604;28;20042;-71
2023/05/03 02:19:52;;;;;;;1.05;0.20;;;19.30;60.20;;;;;;5002864;28;20057;-68
2023/05/03 02:22:19;;;;;;;1.13;0.10;;;19.30;60.20;;;;;;5006356;28;20054;-70
2023/05/03 02:24:46;;;;;;;0.80;0.10;;;19.30;60.20;;;;;;5006889;28;20069;-70
2023/05/03 02:27:13;;;;;;;0.73;0.10;;;19.20;60.80;;;;;;5007048;28;20463;-69
2023/05/03 02:29:40;;;;;;;0.95;0.22;;;19.20;60.80;;;;;;5002447;28;20053;-70
2023/05/03 02:32:08;;;;;;;1.00;0.20;;;19.30;60.20;;;;;;5012412;28;20483;-70
2023/05/03 02:34:35;;;;;;;1.00;0.10;;;19.30;60.20;;;;;;5008711;28;20046;-70
2023/05/03 02:37:03;;;;;;;0.80;0.10;;;19.20;60.10;;;;;;5008148;28;20038;-70
2023/05/03 02:39:30;;;;;;;0.60;0.10;;;19.20;60.10;;;;;;5004649;28;20057;-71
2023/05/03 02:41:57;;;;;;;0.82;0.20;;;19.20;60.10;;;;;;5005865;28;20065;-70
2023/05/03 02:44:24;;;;;;;0.40;0.10;;;19.20;60.20;;;;;;5008259;28;20041;-70
2023/05/03 02:46:53;;;;;;;0.50;0.10;;;19.20;60.10;;;;;;5007731;28;20465;-69
2023/05/03 02:49:22;;;;;;;1.00;0.28;;;19.20;60.10;;;;;;5008433;28;20076;-70
2023/05/03 02:51:48;;;;;;;0.75;0.10;;;19.20;60.10;;;;;;5006789;28;20061;-70
2023/05/03 02:54:15;;;;;;;0.93;0.52;;;19.20;60.10;;;;;;5006674;28;20058;-70
2023/05/03 02:56:42;;;;;;;0.95;0.10;;;19.20;60.10;;;;;;5007637;28;20108;-70
2023/05/03 02:59:10;;;;;;;0.40;0.10;;;19.20;60.10;;;;;;5005323;28;20845;-70
2023/05/03 03:01:37;;;;;;;0.50;0.20;;;19.20;60.10;;;;;;5004773;28;20061;-70
2023/05/03 03:04:05;;;;;;;0.63;0.22;;;19.20;60.10;;;;;;5008368;28;20050;-70
2023/05/03 03:06:33;;;;;;;0.50;0.20;;;19.20;60.10;;;;;;5008702;28;20076;-70
2023/05/03 03:09:00;;;;;;;0.65;0.10;;;19.20;60.10;;;;;;4989910;28;20554;-70
2023/05/03 03:11:27;;;;;;;0.77;0.13;;;19.20;60.70;;;;;;5000942;28;20053;-70
2023/05/03 03:13:54;;;;;;;0.43;0.10;;;19.20;60.10;;;;;;5007563;28;20073;-70
2023/05/03 03:16:21;;;;;;;0.70;0.10;;;19.20;60.10;;;;;;5007440;28;20470;-70
2023/05/03 03:18:48;;;;;;;0.40;0.17;;;19.20;60.10;;;;;;5007567;28;20056;-70
2023/05/03 03:21:15;;;;;;;0.47;0.10;;;19.20;60.10;;;;;;5003512;28;20058;-68
2023/05/03 03:23:43;;;;;;;0.60;0.20;;;19.20;60.10;;;;;;5000965;28;20058;-70
2023/05/03 03:26:11;;;;;;;0.63;0.10;;;19.20;60.10;;;;;;5001900;28;20068;-70
2023/05/03 03:28:38;;;;;;;0.75;0.10;;;19.20;60.10;;;;;;5003768;28;20050;-70
2023/05/03 03:31:05;;;;;;;1.17;0.10;;;19.10;60.10;;;;;;5007464;28;20046;-70
2023/05/03 03:33:32;;;;;;;1.05;0.10;;;19.20;60.10;;;;;;5006245;28;20700;-71
2023/05/03 03:35:59;;;;;;;0.65;0.15;;;19.10;60.60;;;;;;5005096;28;20061;-70
2023/05/03 03:38:26;;;;;;;0.93;0.25;;;19.10;60.00;;;;;;5000254;28;20050;-69
2023/05/03 03:40:54;;;;;;;0.75;0.10;;;19.10;60.00;;;;;;5006608;28;20052;-70
2023/05/03 03:43:21;;;;;;;1.02;0.40;;;19.20;60.10;;;;;;5007060;28;20057;-70
2023/05/03 03:45:48;;;;;;;0.88;0.10;;;19.10;60.00;;;;;;5007521;28;20096;-70
2023/05/03 03:48:15;;;;;;;0.40;0.10;;;19.10;60.00;;;;;;5009946;28;20044;-70
2023/05/03 03:50:42;;;;;;;0.40;0.10;;;19.10;60.00;;;;;;5009734;28;20050;-70
2023/05/03 03:53:09;;;;;;;0.93;0.17;;;19.10;60.00;;;;;;5010469;28;20491;-70
2023/05/03 03:55:37;;;;;;;0.57;0.10;;;19.10;60.00;;;;;;5009779;28;20092;-70
2023/05/03 03:58:05;;;;;;;1.20;0.10;;;19.10;60.00;;;;;;5009748;28;20111;-70
2023/05/03 04:00:34;;;;;;;0.47;0.08;;;19.10;60.00;;;;;;5000903;28;20152;-69
2023/05/03 04:03:01;;;;;;;3.60;0.20;;;19.10;60.00;;;;;;4999637;28;20081;-70
2023/05/03 04:05:28;;;;;;;0.63;0.13;;;19.10;60.00;;;;;;5008977;28;20502;-69
2023/05/03 04:07:55;;;;;;;0.60;0.10;;;19.10;60.00;;;;;;5009276;28;20054;-70
2023/05/03 04:10:22;;;;;;;0.60;0.10;;;19.10;60.00;;;;;;5011304;28;20038;-70
2023/05/03 04:12:49;;;;;;;0.73;0.20;;;19.10;60.00;;;;;;5013684;28;20495;-69
2023/05/03 04:15:17;;;;;;;0.30;0.00;;;19.10;60.00;;;;;;5006721;28;20339;-69
2023/05/03 04:17:44;;;;;;;0.47;0.10;;;19.10;60.00;;;;;;5011308;28;20053;-70
2023/05/03 04:20:12;;;;;;;1.85;0.10;;;19.10;60.00;;;;;;5009997;28;20050;-70
2023/05/03 04:22:40;;;;;;;1.02;0.10;;;19.10;59.90;;;;;;5009801;28;20423;-70
2023/05/03 04:25:12;;;;;;;0.60;0.20;;;19.10;60.00;;;;;;5010485;28;20049;-70
2023/05/03 04:27:39;;;;;;;1.17;0.40;;;19.10;60.00;;;;;;5003825;28;20080;-70
2023/05/03 04:30:08;;;;;;;0.68;0.22;;;19.10;60.00;;;;;;5010681;28;20050;-70
2023/05/03 04:32:39;;;;;;;0.70;0.10;;;19.10;59.90;;;;;;5009686;28;20495;-69
2023/05/03 04:35:09;;;;;;;0.70;0.15;;;19.10;59.90;;;;;;5007621;28;20140;-69
2023/05/03 04:37:36;;;;;;;1.30;0.32;;;19.10;60.00;;;;;;5006916;28;20058;-70
2023/05/03 04:40:06;;;;;;;0.50;0.10;;;19.10;59.90;;;;;;5008517;28;20050;-70
2023/05/03 04:42:33;;;;;;;1.33;0.10;;;19.10;59.90;;;;;;5008363;28;20136;-70
2023/05/03 04:45:01;;;;;;;0.50;0.20;;;19.00;59.90;;;;;;5009367;28;20478;-70
2023/05/03 04:47:28;;;;;;;0.77;0.17;;;19.00;59.90;;;;;;4997616;28;20054;-69
2023/05/03 04:49:57;;;;;;;0.80;0.13;;;19.10;59.90;;;;;;5008770;28;20068;-70
2023/05/03 04:52:24;;;;;;;0.68;0.05;;;19.10;60.60;;;;;;5002520;28;20093;-70
2023/05/03 04:54:51;;;;;;;0.60;0.10;;;19.00;59.90;;;;;;5009518;28;20064;-71
2023/05/03 04:57:17;;;;;;;0.38;0.00;;;19.10;59.90;;;;;;5009641;28;20451;-70
2023/05/03 04:59:44;;;;;;;0.63;0.20;;;19.00;59.90;;;;;;5008600;28;20053;-70
2023/05/03 05:02:11;;;;;;;0.40;0.10;;;19.00;59.90;;;;;;5008730;28;20167;-70
2023/05/03 05:04:38;;;;;;;0.88;0.10;;;19.00;59.90;;;;;;5010438;28;20062;-69
2023/05/03 05:07:07;;;;;;;0.55;0.20;;;19.00;59.90;;;;;;5009679;28;20376;-68
2023/05/03 05:09:35;;;;;;;0.45;0.10;;;19.10;60.00;;;;;;5009204;28;20418;-70
2023/05/03 05:12:02;;;;;;;0.43;0.10;;;19.00;59.90;;;;;;5000670;28;20503;-70
2023/05/03 05:14:31;;;;;;;0.52;0.08;;;19.00;59.80;;;;;;5006618;28;20054;-70
2023/05/03 05:16:58;;;;;;;0.77;0.10;;;19.10;59.90;;;;;;5005456;28;20081;-70
2023/05/03 05:19:25;;;;;;;0.95;0.22;;;19.00;59.80;;;;;;5000169;28;20749;-70
2023/05/03 05:21:52;;;;;;;0.88;0.10;;;19.00;59.80;;;;;;5008708;28;20054;-70
2023/05/03 05:24:21;;;;;;;0.40;0.10;;;19.10;59.90;;;;;;5001913;28;20050;-70
2023/05/03 05:26:49;;;;;;;0.38;0.10;;;19.00;59.80;;;;;;4999591;28;20049;-70
2023/05/03 05:29:16;;;;;;;0.55;0.10;;;19.00;59.80;;;;;;5007639;28;20069;-70
2023/05/03 05:31:42;;;;;;;0.25;0.05;;;19.00;59.80;;;;;;5004697;28;20403;-70
2023/05/03 05:34:09;;;;;;;0.47;0.00;;;19.10;59.90;;;;;;5005242;28;20054;-70
2023/05/03 05:36:36;;;;;;;0.40;0.13;;;19.10;59.90;;;;;;5003803;28;20057;-69
2023/05/03 05:39:03;;;;;;;0.75;0.10;;;19.10;59.90;;;;;;5008392;28;20466;-70
2023/05/03 05:41:32;;;;;;;0.32;0.10;;;19.10;59.90;;;;;;5007669;28;20487;-69
2023/05/03 05:43:59;;;;;;;1.98;0.20;;;19.10;59.90;;;;;;4996247;28;20073;-69
2023/05/03 05:46:26;;;;;;;0.60;0.10;;;19.10;59.90;;;;;;5001790;28;20081;-71
2023/05/03 05:48:53;;;;;;;0.95;0.15;;;19.10;59.90;;;;;;5000232;28;20057;-69
2023/05/03 05:51:20;;;;;;;4.72;0.20;;;19.10;59.80;;;;;;5003862;28;20046;-69
2023/05/03 05:53:47;;;;;;;0.73;0.10;;;19.10;59.80;;;;;;5000112;28;20065;-70
2023/05/03 05:56:14;;;;;;;0.98;0.20;;;19.10;59.90;;;;;;5008135;28;20050;-68
2023/05/03 05:58:42;;;;;;;0.30;0.10;;;19.10;59.90;;;;;;5007477;28;20506;-70
2023/05/03 06:01:09;;;;;;;0.55;0.10;;;19.10;59.90;;;;;;5005642;28;20114;-69
2023/05/03 06:03:36;;;;;;;0.57;0.10;;;19.10;60.50;;;;;;5006615;28;20057;-70
2023/05/03 06:06:03;;;;;;;0.50;0.10;;;19.10;59.90;;;;;;5004595;28;20057;-69
2023/05/03 06:08:30;;;;;;;0.50;0.10;;;19.10;59.80;;;;;;5003490;28;20128;-70
2023/05/03 06:10:57;;;;;;;0.80;0.10;;;19.10;59.80;;;;;;5007115;28;20049;-69
2023/05/03 06:13:24;;;;;;;0.38;0.10;;;19.10;59.80;;;;;;5007686;28;20586;-69
2023/05/03 06:15:53;;;;;;;0.60;0.20;;;19.10;59.90;;;;;;5006287;28;20096;-70
2023/05/03 06:18:19;;;;;;;1.35;0.13;;;19.10;59.80;;;;;;5008543;28;20065;-69
2023/05/03 06:20:49;;;;;;;1.13;0.30;;;19.10;60.40;;;;;;5002874;28;20924;-75
2023/05/03 06:23:16;;;;;;;;;;;19.10;59.80;;;;;;5003355;28;20099;-69
2023/05/03 06:25:46;;;;;;;0.50;0.10;;;19.10;59.90;;;;;;5003094;28;19932;-70
2023/05/03 06:28:12;;;;;;;;;;;19.10;59.80;;;;;;5006870;28;20046;-70
2023/05/03 06:30:39;;;;;;;0.80;0.13;;;19.10;59.80;;;;;;5005495;28;19925;-69
2023/05/03 06:33:08;;;;;;;0.60;0.10;;;19.10;59.70;;;;;;5004524;28;20497;-70
2023/05/03 06:35:35;;;;;;;0.40;0.10;;;19.10;59.80;;;;;;4997095;28;20058;-69
2023/05/03 06:38:01;;;;;;;0.25;0.00;;;19.20;59.80;;;;;;5003834;28;20057;-69
2023/05/03 06:40:28;;;;;;;0.50;0.10;;;19.10;60.40;;;;;;5006230;28;20061;-70
2023/05/03 06:42:55;;;;;;;0.77;0.10;;;19.10;59.80;;;;;;5004891;28;20112;-69
2023/05/03 06:45:22;;;;;;;0.52;0.17;;;19.10;59.80;;;;;;5011242;28;20498;-69
2023/05/03 06:47:49;;;;;;;0.88;0.22;;;19.10;60.40;;;;;;5003966;28;20045;-70
2023/05/03 06:50:18;;;;;;;0.50;0.10;;;19.20;59.80;;;;;;5001268;28;20042;-70
2023/05/03 06:52:45;;;;;;;1.20;0.10;;;19.20;59.90;;;;;;5001154;28;20507;-70
2023/05/03 06:55:12;;;;;;;0.32;0.10;;;19.20;59.80;;;;;;5003416;28;20053;-70
2023/05/03 06:57:41;;;;;;;0.65;0.10;;;19.10;59.80;;;;;;5005301;28;20049;-70
2023/05/03 07:00:10;;;;;;;0.70;0.13;;;19.10;59.70;;;;;;5006142;28;20092;-69
2023/05/03 07:02:37;;;;;;;1.50;0.10;;;19.20;59.80;;;;;;5003563;28;20451;-70
2023/05/03 07:05:04;;;;;;;2.13;0.20;;;19.20;59.80;;;;;;5005787;28;20138;-70
2023/05/03 07:07:33;;;;;;;1.02;0.17;;;19.20;59.80;;;;;;5004131;28;20046;-70
2023/05/03 07:10:00;;;;;;;1.67;0.20;;;19.20;59.80;;;;;;5003030;28;20049;-70
2023/05/03 07:12:27;;;;;;;0.40;0.10;;;19.20;59.80;;;;;;5006015;28;20085;-69
2023/05/03 07:14:54;;;;;;;0.60;0.10;;;19.20;59.70;;;;;;5008001;28;20128;-70
2023/05/03 07:17:21;;;;;;;0.57;0.10;;;19.20;59.70;;;;;;5007627;28;20557;-70
2023/05/03 07:19:49;;;;;;;0.52;0.03;;;19.20;59.70;;;;;;5008500;28;20507;-69
2023/05/03 07:22:16;;;;;;;1.00;0.20;;;19.20;60.30;;;;;;5007329;28;20060;-70
2023/05/03 07:24:44;;;;;;;0.50;0.10;;;19.30;59.70;;;;;;5003020;28;20062;-68
2023/05/03 07:27:11;;;;;;;0.47;0.10;;;19.30;59.70;;;;;;5007770;28;20049;-67
2023/05/03 07:29:38;;;;;;;0.45;0.10;;;19.30;59.70;;;;;;5008551;28;20049;-69
2023/05/03 07:32:06;;;;;;;0.40;0.10;;;19.30;59.70;;;;;;5007494;28;20050;-69
2023/05/03 07:34:32;;;;;;;0.47;0.10;;;19.30;59.80;;;;;;5007525;28;20410;-69
2023/05/03 07:36:59;;;;;;;0.30;0.10;;;19.30;59.70;;;;;;5007430;28;20050;-69
2023/05/03 07:39:26;;;;;;;0.88;0.13;;;19.30;59.60;;;;;;5008994;28;20092;-69
2023/05/03 07:41:55;;;;;;;0.52;0.10;;;19.30;59.70;;;;;;5009027;28;20053;-69
2023/05/03 07:44:21;;;;;;;1.23;0.10;;;19.30;59.70;;;;;;5006006;28;20526;-70
2023/05/03 07:46:49;;;;;;;0.55;0.20;;;19.30;59.60;;;;;;5010998;28;20050;-69
2023/05/03 07:49:16;;;;;;;0.70;0.20;;;19.30;59.60;;;;;;5007042;28;20054;-68
2023/05/03 07:51:43;;;;;;;0.77;0.20;;;19.30;59.60;;;;;;5009628;28;20057;-69
2023/05/03 07:54:10;;;;;;;0.65;0.10;;;19.30;59.60;;;;;;5009936;28;20422;-69
2023/05/03 07:56:37;;;;;;;0.77;0.10;;;19.30;59.50;;;;;;5006668;28;20657;-69
2023/05/03 07:59:05;;;;;;;0.50;0.10;;;19.30;59.50;;;;;;5006567;28;20057;-69
2023/05/03 08:01:32;;;;;;;0.50;0.10;;;19.30;59.60;;;;;;5005010;28;20046;-69
2023/05/03 08:03:59;;;;;;;0.82;0.20;;;19.40;59.60;;;;;;5008735;28;20157;-69
2023/05/03 08:06:26;;;;;;;0.82;0.20;;;19.40;59.60;;;;;;5007078;28;20053;-69
2023/05/03 08:08:53;;;;;;;0.45;0.10;;;19.40;59.60;;;;;;5010675;28;20049;-68
2023/05/03 08:11:20;;;;;;;0.40;0.10;;;19.30;59.60;;;;;;5008046;28;20053;-69
2023/05/03 08:13:47;;;;;;;0.95;0.10;;;19.40;59.70;;;;;;5005563;28;20529;-69
2023/05/03 08:16:16;;;;;;;0.40;0.10;;;19.40;59.70;;;;;;5006193;28;20058;-68
2023/05/03 08:18:43;;;;;;;1.02;0.20;;;19.40;59.70;;;;;;5008282;28;20476;-69
2023/05/03 08:21:12;;;;;;;0.47;0.10;;;19.40;59.70;;;;;;5006358;28;20057;-69
2023/05/03 08:23:39;;;;;;;0.65;0.10;;;19.40;59.70;;;;;;5008749;28;20128;-69
2023/05/03 08:26:08;;;;;;;0.55;0.25;;;19.40;59.70;;;;;;5007871;28;20050;-69
2023/05/03 08:28:35;;;;;;;0.43;0.10;;;19.50;59.80;;;;;;5008364;28;20049;-69
2023/05/03 08:31:03;;;;;;;0.52;0.17;;;19.50;59.80;;;;;;5009004;28;20061;-68
2023/05/03 08:33:31;;;;;;;0.60;0.10;;;19.50;60.30;;;;;;5009146;28;20077;-69
2023/05/03 08:35:58;;;;;;;0.95;0.10;;;19.50;59.70;;;;;;5006309;28;20108;-69
2023/05/03 08:38:26;;;;;;;0.65;0.10;;;19.50;59.70;;;;;;5004925;28;20495;-69
2023/05/03 08:40:55;;;;;;;0.75;0.13;;;19.50;59.70;;;;;;5006498;28;20565;-68
2023/05/03 08:43:26;;;;;;;1.50;0.13;;;19.50;59.80;;;;;;4999639;28;20054;-69
2023/05/03 08:45:53;;;;;;;0.60;0.10;;;19.50;59.70;;;;;;4999146;28;20060;-69
2023/05/03 08:48:20;;;;;;;0.80;0.10;;;19.60;59.80;;;;;;5006671;28;20052;-68
2023/05/03 08:50:51;;;;;;;0.45;0.00;;;19.50;59.70;;;;;;4996925;28;20050;-69
2023/05/03 08:53:18;;;;;;;0.38;0.10;;;19.50;59.80;;;;;;5006382;28;20112;-69
2023/05/03 08:55:45;;;;;;;0.60;0.10;;;19.50;59.80;;;;;;5002565;28;20084;-69
2023/05/03 08:58:13;;;;;;;0.50;0.10;;;19.50;59.70;;;;;;5003336;28;20052;-69
2023/05/03 09:00:43;;;;;;;1.38;0.10;;;19.60;59.80;;;;;;5004549;28;20495;-68
2023/05/03 09:03:10;;;;;;;0.65;0.17;;;19.60;60.40;;;;;;5000704;28;20046;-69
2023/05/03 09:05:40;;;;;;;1.63;0.10;;;19.60;59.80;;;;;;5007160;28;20133;-69
2023/05/03 09:08:09;;;;;;;0.77;0.30;;;19.60;59.80;;;;;;5007358;28;20089;-69
2023/05/03 09:10:39;;;;;;;0.60;0.40;;;19.60;59.80;;;;;;5007051;28;20058;-68
2023/05/03 09:13:06;;;;;;;;;;;19.60;59.80;;;;;;5005090;28;20058;-68
2023/05/03 09:15:34;;;;;;;0.43;0.10;;;19.60;59.80;;;;;;5007446;28;19947;-69
2023/05/03 09:18:08;;;;;;;0.70;0.08;;;19.60;59.80;;;;;;5007343;28;20505;-69
2023/05/03 09:20:37;;;;;;;0.85;0.10;;;19.60;59.80;;;;;;4996375;28;20065;-68
2023/05/03 09:23:04;;;;;;;0.45;0.20;;;19.60;59.80;;;;;;5008540;28;20053;-68
2023/05/03 09:25:46;;;;;;;1.17;0.40;;;19.60;59.70;;;;;;5009770;28;20045;-68
2023/05/03 09:28:13;;;;;;;1.50;0.20;;;19.60;59.90;;;;;;5006262;28;20065;-69
2023/05/03 09:30:41;;;;;;;0.38;0.20;;;19.60;59.80;;;;;;5008563;28;20057;-69
2023/05/03 09:33:10;;;;;;;0.55;0.10;;;19.60;59.80;;;;;;5006984;28;20068;-69
2023/05/03 09:35:37;;;;;;;0.68;0.17;;;19.60;59.70;;;;;;5009439;28;20054;-68
2023/05/03 09:38:04;;;;;;;0.50;0.13;;;19.70;59.80;;;;;;4998695;28;20053;-69
2023/05/03 09:40:31;;;;;;;0.50;0.10;;;19.60;59.80;;;;;;5009127;28;20422;-68
2023/05/03 09:43:10;;;;;;;0.40;0.20;;;19.70;59.80;;;;;;5008453;28;20046;-68
2023/05/03 09:45:38;;;;;;;0.73;0.10;;;19.70;59.90;;;;;;5001637;28;20148;-68
2023/05/03 09:48:07;;;;;;;0.85;0.10;;;19.60;59.90;;;;;;5006333;28;20163;-68
2023/05/03 09:50:36;;;;;;;0.60;0.10;;;19.60;59.90;;;;;;4994925;28;20112;-69
2023/05/03 09:53:05;;;;;;;0.57;0.10;;;19.70;59.90;;;;;;5008620;28;20116;-69
2023/05/03 09:55:36;;;;;;;0.35;0.10;;;19.70;59.90;;;;;;5008330;28;20050;-69
2023/05/03 09:58:06;;;;;;;0.60;0.20;;;19.70;59.80;;;;;;5003752;28;20054;-67
2023/05/03 10:00:39;;;;;;;0.88;0.10;;;19.70;59.80;;;;;;5000263;28;20079;-74
2023/05/03 10:03:11;;;;;;;0.70;0.20;;;19.70;59.90;;;;;;5004916;28;20054;-76
2023/05/03 10:05:47;;;;;;;1.08;0.20;;;19.70;59.90;;;;;;5003755;28;20120;-75
2023/05/03 10:08:28;;;;;;;0.50;0.10;;;19.80;60.50;;;;;;5005383;28;20069;-74
2023/05/03 10:10:55;;;;;;;0.90;0.43;;;19.80;60.00;;;;;;5006454;28;20080;-75
2023/05/03 10:13:23;;;;;;;0.60;0.20;;;19.80;60.00;;;;;;5006828;28;20050;-74
2023/05/03 10:15:56;;;;;;;1.05;0.10;;;19.80;60.00;;;;;;5001611;28;20054;-75
2023/05/03 10:18:26;;;;;;;0.47;0.10;;;19.80;60.00;;;;;;5005471;28;20049;-74
2023/05/03 10:20:58;;;;;;;0.85;0.20;;;19.90;60.10;;;;;;5004281;28;20133;-74
2023/05/03 10:23:26;;;;;;;0.40;0.10;;;19.90;60.10;;;;;;5006885;28;20130;-74
2023/05/03 10:26:12;;;;;;;0.60;0.20;;;19.90;60.10;;;;;;4998900;28;20050;-73
2023/05/03 10:28:40;;;;;;;0.60;0.32;;;19.90;60.10;;;;;;5002756;28;20042;-74
2023/05/03 10:31:44;;;;;;;1.38;0.20;;;19.90;60.10;;;;;;5007095;28;20052;-73
2023/05/03 10:34:21;;;;;;;0.52;0.10;;;19.90;60.10;;;;;;5004584;28;20495;-73
2023/05/03 10:36:51;;;;;;;0.95;0.20;;;19.90;60.10;;;;;;5007847;28;20062;-74
2023/05/03 10:39:18;;;;;;;;;;;20.00;60.10;;;;;;5007396;28;20045;-74
2023/05/03 10:41:45;;;;;;;0.55;0.13;;;20.00;60.20;;;;;;5001215;28;19968;-74
2023/05/03 10:44:29;;;;;;;0.65;0.15;;;20.00;60.00;;;;;;5009120;28;20057;-74
2023/05/03 10:47:09;;;;;;;0.80;0.13;;;20.00;60.00;;;;;;5004128;28;20045;-73
2023/05/03 10:49:36;;;;;;;0.45;0.10;;;20.10;60.00;;;;;;5004956;28;20049;-73
2023/05/03 10:52:03;;;;;;;0.70;0.10;;;20.10;60.00;;;;;;5004702;28;20518;-74
2023/05/03 10:54:30;;;;;;;0.50;0.10;;;20.10;60.10;;;;;;5005046;28;20487;-75
2023/05/03 10:56:57;;;;;;;0.65;0.13;;;20.10;60.10;;;;;;5004055;28;20466;-75
2023/05/03 10:59:24;;;;;;;0.38;0.10;;;20.10;60.10;;;;;;5004455;28;20684;-75
2023/05/03 11:01:52;;;;;;;0.75;0.10;;;20.20;60.70;;;;;;5006093;28;20120;-74
2023/05/03 11:04:45;;;;;;;0.77;0.10;;;20.20;60.10;;;;;;5004776;28;20137;-69
2023/05/03 11:07:19;;;;;;;0.52;0.13;;;20.20;60.10;;;;;;4998836;28;20135;-70
2023/05/03 11:09:46;;;;;;;0.43;0.10;;;20.20;60.00;;;;;;5001222;28;20046;-75
2023/05/03 11:12:13;;;;;;;0.47;0.10;;;20.20;60.10;;;;;;5006349;28;20068;-74
2023/05/03 11:14:42;;;;;;;1.23;0.20;;;20.20;60.70;;;;;;5007492;28;20671;-73
2023/05/03 11:17:09;;;;;;;0.68;0.20;;;20.20;60.20;;;;;;5002465;28;20057;-73
2023/05/03 11:19:36;;;;;;;1.95;0.10;;;20.20;60.10;;;;;;5004805;28;20061;-73
2023/05/03 11:22:05;;;;;;;0.40;0.10;;;20.20;60.70;;;;;;5006916;28;20503;-74
2023/05/03 11:24:32;;;;;;;0.93;0.10;;;20.30;60.20;;;;;;5005679;28;20054;-70
2023/05/03 11:26:59;;;;;;;0.50;0.10;;;20.30;60.20;;;;;;5005182;28;20068;-71
2023/05/03 11:29:26;;;;;;;0.77;0.10;;;20.30;60.20;;;;;;5005735;28;20060;-70
2023/05/03 11:31:53;;;;;;;1.15;0.10;;;20.30;60.20;;;;;;4998923;28;20050;-70
2023/05/03 11:34:20;;;;;;;0.55;0.20;;;20.30;60.20;;;;;;5005709;28;20042;-70
2023/05/03 11:36:48;;;;;;;0.88;0.10;;;20.30;60.20;;;;;;5003913;28;20046;-70
2023/05/03 11:39:16;;;;;;;0.82;0.22;;;20.30;60.20;;;;;;4999218;28;20049;-70
2023/05/03 11:41:43;;;;;;;0.90;0.13;;;20.30;60.30;;;;;;5002678;28;20093;-70
2023/05/03 11:44:10;;;;;;;0.93;0.10;;;20.30;60.20;;;;;;5004890;28;20053;-69
2023/05/03 11:46:39;;;;;;;0.63;0.10;;;20.30;60.20;;;;;;5005107;28;20052;-70
2023/05/03 11:49:06;;;;;;;0.70;0.20;;;20.30;60.20;;;;;;5003317;28;20054;-70
2023/05/03 11:51:34;;;;;;;0.50;0.10;;;20.30;60.20;;;;;;5005332;28;20054;-70
2023/05/03 11:54:02;;;;;;;0.30;0.10;;;20.40;60.30;;;;;;5006013;28;20112;-70
2023/05/03 11:56:31;;;;;;;1.13;0.30;;;20.40;60.20;;;;;;5007472;28;20042;-71
2023/05/03 11:58:59;;;;;;;0.70;0.10;;;20.40;60.20;;;;;;5009149;28;20053;-70
2023/05/03 12:01:28;;;;;;;0.52;0.10;;;20.40;60.20;;;;;;5006497;28;20042;-70
2023/05/03 12:03:59;;;;;;;0.80;0.10;;;20.40;60.30;;;;;;5007315;28;20407;-70
2023/05/03 12:06:27;;;;;;;0.68;0.10;;;20.40;60.20;;;;;;5006403;28;20049;-70
2023/05/03 12:08:55;;;;;;;0.45;0.10;;;20.40;60.20;;;;;;5007034;28;20132;-70
2023/05/03 12:11:22;;;;;;;0.80;0.10;;;20.40;60.20;;;;;;5009199;28;20073;-70
2023/05/03 12:13:58;;;;;;;1.38;0.22;;;20.50;60.20;;;;;;5005602;28;20111;-70
2023/05/03 12:16:26;;;;;;;0.40;0.10;;;20.50;60.10;;;;;;5000394;28;20042;-70
2023/05/03 12:18:56;;;;;;;0.38;0.10;;;20.60;60.10;;;;;;5008227;28;20141;-70
2023/05/03 12:21:25;;;;;;;0.50;0.13;;;20.60;60.10;;;;;;5005900;28;20429;-70
2023/05/03 12:23:52;;;;;;;0.55;0.13;;;20.60;60.00;;;;;;5008712;28;20042;-70
2023/05/03 12:26:20;;;;;;;0.60;0.10;;;20.60;60.00;;;;;;5009275;28;20054;-70
2023/05/03 12:28:47;;;;;;;0.45;0.10;;;20.60;60.00;;;;;;5005704;28;20641;-70
2023/05/03 12:31:16;;;;;;;0.60;0.20;;;20.60;60.00;;;;;;5003612;28;20054;-68
2023/05/03 12:33:44;;;;;;;0.47;0.10;;;20.70;60.60;;;;;;5006008;28;20100;-70
2023/05/03 12:36:11;;;;;;;0.95;0.20;;;20.70;60.00;;;;;;5004233;28;20121;-70
2023/05/03 12:38:38;;;;;;;0.80;0.10;;;20.80;60.00;;;;;;5008394;28;20060;-70
2023/05/03 12:41:05;;;;;;;0.50;0.10;;;20.80;59.90;;;;;;5005588;28;20418;-71
2023/05/03 12:43:32;;;;;;;0.95;0.10;;;20.80;59.90;;;;;;5008017;28;20053;-70
2023/05/03 12:46:01;;;;;;;0.50;0.03;;;20.90;59.90;;;;;;5000050;28;20145;-70
2023/05/03 12:48:30;;;;;;;0.70;0.10;;;21.00;59.90;;;;;;5002212;28;20046;-70
2023/05/03 12:50:57;;;;;;;1.20;0.20;;;20.90;59.80;;;;;;5005094;28;20057;-70
2023/05/03 12:53:25;;;;;;;0.40;0.10;;;20.90;59.70;;;;;;5009444;28;20865;-70
2023/05/03 12:55:51;;;;;;;1.23;0.20;;;21.00;59.80;;;;;;5008147;28;20049;-70
2023/05/03 12:58:18;;;;;;;1.27;0.10;;;21.00;59.70;;;;;;5000684;28;20491;-70
2023/05/03 13:00:47;;;;;;;0.45;0.10;;;21.10;59.80;;;;;;5004657;28;20073;-70